METAR AND TAF INFORMATION
METAR FOR LPFR
ADDS - METARS form results

(2244 UTC 27 November 2021)
Data provider http://aviationweather.gov/metar/data/
 
METAR text: LPFR 272230Z 33014KT CAVOK 10/02 Q1019
Conditions at: LPFR (FARO , PT) observed 2230 UTC 27 November 2021
Temperature: 10.0°C (50°F)
Dewpoint: 2.0°C (36°F) [RH = 57%]
Pressure (altimeter): 30.09 inches Hg (1019.0 mb)
Winds: from the NNW (330 degrees) at 16 MPH (14 knots; 7.2 m/s)
Visibility: 6 or more miles (10+ km)
Ceiling: ceiling and visibility are OK
Clouds: unknown
Weather: no significant weather observed at this time

METAR text: LPFR 272200Z 33014KT CAVOK 10/03 Q1018
Conditions at: LPFR (FARO , PT) observed 2200 UTC 27 November 2021
Temperature: 10.0°C (50°F)
Dewpoint: 3.0°C (37°F) [RH = 62%]
Pressure (altimeter): 30.06 inches Hg (1018.0 mb)
Winds: from the NNW (330 degrees) at 16 MPH (14 knots; 7.2 m/s)
Visibility: 6 or more miles (10+ km)
Ceiling: ceiling and visibility are OK
Clouds: unknown
Weather: no significant weather observed at this time

Forecast for: LPFR (FARO , PT)
Text: TAF LPFR 271700Z 2718/2818 33013KT 9999 FEW045
Forecast period: 1800 to 2100 UTC 27 November 2021
Forecast type: FROM: standard forecast or significant change
Winds: from the NNW (330 degrees) at 15 MPH (13 knots; 6.7 m/s)
Visibility: 6 or more miles (10+ km)
Ceiling: at least 12,000 feet AGL
Clouds: few clouds at 4500 feet AGL
Weather: no significant weather forecast for this period
Text: BECMG 2721/2724 31007KT
Forecast period: 2100 UTC 27 November 2021 to 0900 UTC 28 November 2021
Forecast type: BECOMING: Conditions expected to become as follows by 0000 UTC 28 November 2021
Winds: from the NW (310 degrees) at 8 MPH (7 knots; 3.6 m/s)
Visibility: 6 or more miles (10+ km)
Ceiling: at least 12,000 feet AGL
Clouds: few clouds at 4500 feet AGL
Weather: no significant weather forecast for this period
Text: BECMG 2809/2812 34013KT
Forecast period: 0900 to 1800 UTC 28 November 2021
Forecast type: BECOMING: Conditions expected to become as follows by 1200 UTC 28 November 2021
Winds: from the NNW (340 degrees) at 15 MPH (13 knots; 6.7 m/s)
Visibility: 6 or more miles (10+ km)
Ceiling: at least 12,000 feet AGL
Clouds: few clouds at 4500 feet AGL
Weather: no significant weather forecast for this period

 AIRPORT MAP

 RUNWAY INFORMATION
Runway 10 Runway length 8169 ft Runway width 148 ft
Runway elevation 24 ft Runway displaced threshold 148 ft Runway heading 100
Runway 28 Runway length 8169 ft Runway width 148 ft
Runway elevation 18 ft Runway displaced threshold 148 ft Runway heading 280

 AIRPORT FREQUENCIES
Type APP Name APP Frequency 119.4 MHZ
Type ATIS Name ATIS Frequency 124.2 MHZ
Type GND Name GND Frequency 118.575 MHZ
Type TWR Name TWR Frequency 118.2 MHZ

 AIRPORT NEAR NAVIGATION AIDS
Type NDB Name Faro Frequency 332 KHZ
Type VOR-DME Name Faro Frequency 112800 KHZ



Powered by Heron Airways VA. All Rights Reserved © 2009 [v2.6.2]